sensor_id;sensor_type;location;lat;lon;timestamp;temperature;humidity
61412;DHT22;47278;49.732;7.690;2023-07-22T00:01:05;15.30;99.90
61412;DHT22;47278;49.732;7.690;2023-07-22T00:03:31;15.30;99.90
61412;DHT22;47278;49.732;7.690;2023-07-22T00:06:06;15.30;99.90
61412;DHT22;47278;49.732;7.690;2023-07-22T00:08:35;15.40;99.90
61412;DHT22;47278;49.732;7.690;2023-07-22T00:11:00;15.30;99.90
61412;DHT22;47278;49.732;7.690;2023-07-22T00:13:26;15.30;99.90
61412;DHT22;47278;49.732;7.690;2023-07-22T00:15:55;15.30;99.90
61412;DHT22;47278;49.732;7.690;2023-07-22T00:18:21;15.30;99.90
61412;DHT22;47278;49.732;7.690;2023-07-22T00:20:47;15.40;99.90
61412;DHT22;47278;49.732;7.690;2023-07-22T00:23:12;15.40;99.90
61412;DHT22;47278;49.732;7.690;2023-07-22T00:25:40;15.40;99.90
61412;DHT22;47278;49.732;7.690;2023-07-22T00:28:06;15.40;99.90
61412;DHT22;47278;49.732;7.690;2023-07-22T00:30:31;15.30;99.90
61412;DHT22;47278;49.732;7.690;2023-07-22T00:32:57;15.40;99.90
61412;DHT22;47278;49.732;7.690;2023-07-22T00:35:22;15.40;99.90
61412;DHT22;47278;49.732;7.690;2023-07-22T00:37:48;15.40;99.90
61412;DHT22;47278;49.732;7.690;2023-07-22T00:40:14;15.40;99.90
61412;DHT22;47278;49.732;7.690;2023-07-22T00:42:39;15.40;99.90
61412;DHT22;47278;49.732;7.690;2023-07-22T00:45:05;15.40;99.90
61412;DHT22;47278;49.732;7.690;2023-07-22T00:47:32;15.40;99.90
61412;DHT22;47278;49.732;7.690;2023-07-22T00:49:59;15.30;99.90
61412;DHT22;47278;49.732;7.690;2023-07-22T00:52:25;15.30;99.90
61412;DHT22;47278;49.732;7.690;2023-07-22T00:54:50;15.30;99.90
61412;DHT22;47278;49.732;7.690;2023-07-22T00:57:16;15.30;99.90
61412;DHT22;47278;49.732;7.690;2023-07-22T00:59:41;15.20;99.90
61412;DHT22;47278;49.732;7.690;2023-07-22T01:02:07;15.20;99.90
61412;DHT22;47278;49.732;7.690;2023-07-22T01:04:33;15.30;99.90
61412;DHT22;47278;49.732;7.690;2023-07-22T01:06:59;15.20;99.90
61412;DHT22;47278;49.732;7.690;2023-07-22T01:09:25;15.20;99.90
61412;DHT22;47278;49.732;7.690;2023-07-22T01:11:51;15.20;99.90
61412;DHT22;47278;49.732;7.690;2023-07-22T01:14:16;15.20;99.90
61412;DHT22;47278;49.732;7.690;2023-07-22T01:16:42;15.10;99.90
61412;DHT22;47278;49.732;7.690;2023-07-22T01:19:07;15.10;99.90
61412;DHT22;47278;49.732;7.690;2023-07-22T01:21:34;15.10;99.90
61412;DHT22;47278;49.732;7.690;2023-07-22T01:24:00;15.20;99.90
61412;DHT22;47278;49.732;7.690;2023-07-22T01:26:25;15.20;99.90
61412;DHT22;47278;49.732;7.690;2023-07-22T01:29:00;15.10;99.90
61412;DHT22;47278;49.732;7.690;2023-07-22T01:31:26;15.00;99.90
61412;DHT22;47278;49.732;7.690;2023-07-22T01:33:52;14.90;99.90
61412;DHT22;47278;49.732;7.690;2023-07-22T01:36:17;14.90;99.90
61412;DHT22;47278;49.732;7.690;2023-07-22T01:38:43;15.00;99.90
61412;DHT22;47278;49.732;7.690;2023-07-22T01:41:08;15.00;99.90
61412;DHT22;47278;49.732;7.690;2023-07-22T01:43:34;14.90;99.90
61412;DHT22;47278;49.732;7.690;2023-07-22T01:45:59;14.80;99.90
61412;DHT22;47278;49.732;7.690;2023-07-22T01:48:27;14.80;99.90
61412;DHT22;47278;49.732;7.690;2023-07-22T01:50:53;15.00;99.90
61412;DHT22;47278;49.732;7.690;2023-07-22T01:53:18;14.70;99.90
61412;DHT22;47278;49.732;7.690;2023-07-22T01:55:44;14.50;99.90
61412;DHT22;47278;49.732;7.690;2023-07-22T01:58:10;14.30;99.90
61412;DHT22;47278;49.732;7.690;2023-07-22T02:00:35;14.30;99.90
61412;DHT22;47278;49.732;7.690;2023-07-22T02:03:01;14.30;99.90
61412;DHT22;47278;49.732;7.690;2023-07-22T02:05:26;14.30;99.90
61412;DHT22;47278;49.732;7.690;2023-07-22T02:07:54;14.30;99.90
61412;DHT22;47278;49.732;7.690;2023-07-22T02:10:20;14.20;99.90
61412;DHT22;47278;49.732;7.690;2023-07-22T02:12:46;14.10;99.90
61412;DHT22;47278;49.732;7.690;2023-07-22T02:15:12;14.10;99.90
61412;DHT22;47278;49.732;7.690;2023-07-22T02:17:37;14.10;99.90
61412;DHT22;47278;49.732;7.690;2023-07-22T02:20:03;14.10;99.90
61412;DHT22;47278;49.732;7.690;2023-07-22T02:22:30;14.10;99.90
61412;DHT22;47278;49.732;7.690;2023-07-22T02:24:55;14.20;99.90
61412;DHT22;47278;49.732;7.690;2023-07-22T02:27:21;14.20;99.90
61412;DHT22;47278;49.732;7.690;2023-07-22T02:29:46;14.30;99.90
61412;DHT22;47278;49.732;7.690;2023-07-22T02:32:12;14.40;99.90
61412;DHT22;47278;49.732;7.690;2023-07-22T02:34:37;14.40;99.90
61412;DHT22;47278;49.732;7.690;2023-07-22T02:37:03;14.30;99.90
61412;DHT22;47278;49.732;7.690;2023-07-22T02:39:29;14.30;99.90
61412;DHT22;47278;49.732;7.690;2023-07-22T02:41:55;14.40;99.90
61412;DHT22;47278;49.732;7.690;2023-07-22T02:44:20;14.50;99.90
61412;DHT22;47278;49.732;7.690;2023-07-22T02:46:46;14.40;99.90
61412;DHT22;47278;49.732;7.690;2023-07-22T02:49:11;14.40;99.90
61412;DHT22;47278;49.732;7.690;2023-07-22T02:51:37;14.40;99.90
61412;DHT22;47278;49.732;7.690;2023-07-22T02:54:02;14.40;99.90
61412;DHT22;47278;49.732;7.690;2023-07-22T02:56:29;14.40;99.90
61412;DHT22;47278;49.732;7.690;2023-07-22T02:58:54;14.40;99.90
61412;DHT22;47278;49.732;7.690;2023-07-22T03:01:20;12.90;99.90
61412;DHT22;47278;49.732;7.690;2023-07-22T03:03:45;14.40;99.90
61412;DHT22;47278;49.732;7.690;2023-07-22T03:06:11;14.40;99.90
61412;DHT22;47278;49.732;7.690;2023-07-22T03:08:36;14.40;99.90
61412;DHT22;47278;49.732;7.690;2023-07-22T03:11:02;14.30;99.90
61412;DHT22;47278;49.732;7.690;2023-07-22T03:13:29;14.20;99.90
61412;DHT22;47278;49.732;7.690;2023-07-22T03:15:55;14.20;99.90
61412;DHT22;47278;49.732;7.690;2023-07-22T03:18:20;14.20;99.90
61412;DHT22;47278;49.732;7.690;2023-07-22T03:20:46;14.20;99.90
61412;DHT22;47278;49.732;7.690;2023-07-22T03:23:11;14.10;99.90
61412;DHT22;47278;49.732;7.690;2023-07-22T03:25:37;14.00;99.90
61412;DHT22;47278;49.732;7.690;2023-07-22T03:28:03;14.00;99.90
61412;DHT22;47278;49.732;7.690;2023-07-22T03:30:29;13.80;99.90
61412;DHT22;47278;49.732;7.690;2023-07-22T03:32:55;13.70;99.90
61412;DHT22;47278;49.732;7.690;2023-07-22T03:35:21;13.60;99.90
61412;DHT22;47278;49.732;7.690;2023-07-22T03:37:46;13.60;99.90
61412;DHT22;47278;49.732;7.690;2023-07-22T03:40:12;13.50;99.90
61412;DHT22;47278;49.732;7.690;2023-07-22T03:42:52;13.40;99.90
61412;DHT22;47278;49.732;7.690;2023-07-22T03:45:18;13.30;99.90
61412;DHT22;47278;49.732;7.690;2023-07-22T03:47:44;13.40;99.90
61412;DHT22;47278;49.732;7.690;2023-07-22T03:50:11;13.30;99.90
61412;DHT22;47278;49.732;7.690;2023-07-22T03:52:36;13.30;99.90
61412;DHT22;47278;49.732;7.690;2023-07-22T03:55:02;13.30;99.90
61412;DHT22;47278;49.732;7.690;2023-07-22T03:57:27;13.30;99.90
61412;DHT22;47278;49.732;7.690;2023-07-22T03:59:54;13.30;99.90
61412;DHT22;47278;49.732;7.690;2023-07-22T04:02:19;13.20;99.90
61412;DHT22;47278;49.732;7.690;2023-07-22T04:04:45;13.20;99.90
61412;DHT22;47278;49.732;7.690;2023-07-22T04:07:10;13.10;99.90
61412;DHT22;47278;49.732;7.690;2023-07-22T04:09:36;13.10;99.90
61412;DHT22;47278;49.732;7.690;2023-07-22T04:12:01;13.00;99.90
61412;DHT22;47278;49.732;7.690;2023-07-22T04:14:27;13.00;99.90
61412;DHT22;47278;49.732;7.690;2023-07-22T04:16:52;13.10;99.90
61412;DHT22;47278;49.732;7.690;2023-07-22T04:19:18;13.20;99.90
61412;DHT22;47278;49.732;7.690;2023-07-22T04:21:43;13.20;99.90
61412;DHT22;47278;49.732;7.690;2023-07-22T04:24:09;13.20;99.90
61412;DHT22;47278;49.732;7.690;2023-07-22T04:26:35;13.20;99.90
61412;DHT22;47278;49.732;7.690;2023-07-22T04:29:01;13.30;99.90
61412;DHT22;47278;49.732;7.690;2023-07-22T04:31:26;13.40;99.90
61412;DHT22;47278;49.732;7.690;2023-07-22T04:33:52;13.50;99.90
61412;DHT22;47278;49.732;7.690;2023-07-22T04:36:17;13.40;99.90
61412;DHT22;47278;49.732;7.690;2023-07-22T04:38:43;13.50;99.90
61412;DHT22;47278;49.732;7.690;2023-07-22T04:41:09;13.60;99.90
61412;DHT22;47278;49.732;7.690;2023-07-22T04:43:34;13.70;99.90
61412;DHT22;47278;49.732;7.690;2023-07-22T04:46:00;13.70;99.90
61412;DHT22;47278;49.732;7.690;2023-07-22T04:48:25;13.80;99.90
61412;DHT22;47278;49.732;7.690;2023-07-22T04:50:51;13.80;99.90
61412;DHT22;47278;49.732;7.690;2023-07-22T04:53:17;13.90;99.90
61412;DHT22;47278;49.732;7.690;2023-07-22T04:55:43;13.90;99.90
61412;DHT22;47278;49.732;7.690;2023-07-22T04:58:09;14.00;99.90
61412;DHT22;47278;49.732;7.690;2023-07-22T05:00:36;14.10;99.90
61412;DHT22;47278;49.732;7.690;2023-07-22T05:03:02;14.10;99.90
61412;DHT22;47278;49.732;7.690;2023-07-22T05:05:28;14.10;99.90
61412;DHT22;47278;49.732;7.690;2023-07-22T05:07:54;14.10;99.90
61412;DHT22;47278;49.732;7.690;2023-07-22T05:10:19;14.10;99.90
61412;DHT22;47278;49.732;7.690;2023-07-22T05:12:45;14.20;99.90
61412;DHT22;47278;49.732;7.690;2023-07-22T05:15:11;14.20;99.90
61412;DHT22;47278;49.732;7.690;2023-07-22T05:17:37;14.20;99.90
61412;DHT22;47278;49.732;7.690;2023-07-22T05:20:03;14.30;99.90
61412;DHT22;47278;49.732;7.690;2023-07-22T05:22:31;14.50;99.90
61412;DHT22;47278;49.732;7.690;2023-07-22T05:24:57;14.50;99.90
61412;DHT22;47278;49.732;7.690;2023-07-22T05:27:22;16.70;99.90
61412;DHT22;47278;49.732;7.690;2023-07-22T05:29:48;14.50;99.90
61412;DHT22;47278;49.732;7.690;2023-07-22T05:32:14;14.60;99.90
61412;DHT22;47278;49.732;7.690;2023-07-22T05:34:39;14.70;99.90
61412;DHT22;47278;49.732;7.690;2023-07-22T05:37:05;14.60;99.90
61412;DHT22;47278;49.732;7.690;2023-07-22T05:39:30;14.60;99.90
61412;DHT22;47278;49.732;7.690;2023-07-22T05:41:56;14.60;99.90
61412;DHT22;47278;49.732;7.690;2023-07-22T05:44:21;14.60;99.90
61412;DHT22;47278;49.732;7.690;2023-07-22T05:46:47;14.70;99.90
61412;DHT22;47278;49.732;7.690;2023-07-22T05:49:13;14.70;99.90
61412;DHT22;47278;49.732;7.690;2023-07-22T05:51:38;14.80;99.90
61412;DHT22;47278;49.732;7.690;2023-07-22T05:54:04;14.90;99.90
61412;DHT22;47278;49.732;7.690;2023-07-22T05:56:30;14.90;99.90
61412;DHT22;47278;49.732;7.690;2023-07-22T05:58:55;15.00;99.90
61412;DHT22;47278;49.732;7.690;2023-07-22T06:01:21;15.10;99.90
61412;DHT22;47278;49.732;7.690;2023-07-22T06:03:47;15.00;99.90
61412;DHT22;47278;49.732;7.690;2023-07-22T06:06:13;15.10;99.90
61412;DHT22;47278;49.732;7.690;2023-07-22T06:08:38;15.20;99.90
61412;DHT22;47278;49.732;7.690;2023-07-22T06:11:04;15.20;99.90
61412;DHT22;47278;49.732;7.690;2023-07-22T06:13:29;15.30;99.90
61412;DHT22;47278;49.732;7.690;2023-07-22T06:15:55;15.30;99.90
61412;DHT22;47278;49.732;7.690;2023-07-22T06:18:20;15.30;99.90
61412;DHT22;47278;49.732;7.690;2023-07-22T06:20:46;15.20;99.90
61412;DHT22;47278;49.732;7.690;2023-07-22T06:23:11;15.30;99.90
61412;DHT22;47278;49.732;7.690;2023-07-22T06:25:37;15.40;99.90
61412;DHT22;47278;49.732;7.690;2023-07-22T06:28:02;15.40;99.90
61412;DHT22;47278;49.732;7.690;2023-07-22T06:30:28;15.50;99.90
61412;DHT22;47278;49.732;7.690;2023-07-22T06:32:54;15.50;99.90
61412;DHT22;47278;49.732;7.690;2023-07-22T06:35:19;15.60;99.90
61412;DHT22;47278;49.732;7.690;2023-07-22T06:37:45;15.60;99.90
61412;DHT22;47278;49.732;7.690;2023-07-22T06:40:11;15.60;99.90
61412;DHT22;47278;49.732;7.690;2023-07-22T06:42:36;15.70;99.90
61412;DHT22;47278;49.732;7.690;2023-07-22T06:45:02;15.70;99.90
61412;DHT22;47278;49.732;7.690;2023-07-22T06:47:28;15.70;99.90
61412;DHT22;47278;49.732;7.690;2023-07-22T06:49:53;15.90;99.90
61412;DHT22;47278;49.732;7.690;2023-07-22T06:52:19;16.00;99.90
61412;DHT22;47278;49.732;7.690;2023-07-22T06:54:44;16.20;99.90
61412;DHT22;47278;49.732;7.690;2023-07-22T06:57:10;16.20;99.90
61412;DHT22;47278;49.732;7.690;2023-07-22T06:59:35;16.30;99.90
61412;DHT22;47278;49.732;7.690;2023-07-22T07:02:01;16.40;99.90
61412;DHT22;47278;49.732;7.690;2023-07-22T07:04:27;15.30;99.90
61412;DHT22;47278;49.732;7.690;2023-07-22T07:06:52;16.60;99.90
61412;DHT22;47278;49.732;7.690;2023-07-22T07:09:18;16.70;99.90
61412;DHT22;47278;49.732;7.690;2023-07-22T07:11:44;16.80;99.90
61412;DHT22;47278;49.732;7.690;2023-07-22T07:14:09;16.90;99.90
61412;DHT22;47278;49.732;7.690;2023-07-22T07:16:35;17.00;99.90
61412;DHT22;47278;49.732;7.690;2023-07-22T07:19:01;17.10;99.90
61412;DHT22;47278;49.732;7.690;2023-07-22T07:21:27;17.10;99.90
61412;DHT22;47278;49.732;7.690;2023-07-22T07:23:53;17.20;99.90
61412;DHT22;47278;49.732;7.690;2023-07-22T07:26:19;17.30;99.90
61412;DHT22;47278;49.732;7.690;2023-07-22T07:28:45;17.30;99.90
61412;DHT22;47278;49.732;7.690;2023-07-22T07:31:11;17.40;99.90
61412;DHT22;47278;49.732;7.690;2023-07-22T07:33:37;17.60;99.90
61412;DHT22;47278;49.732;7.690;2023-07-22T07:36:02;17.70;99.90
61412;DHT22;47278;49.732;7.690;2023-07-22T07:38:28;17.80;99.90
61412;DHT22;47278;49.732;7.690;2023-07-22T07:40:55;18.00;99.90
61412;DHT22;47278;49.732;7.690;2023-07-22T07:43:21;18.20;99.90
61412;DHT22;47278;49.732;7.690;2023-07-22T07:45:47;18.30;99.90
61412;DHT22;47278;49.732;7.690;2023-07-22T07:48:12;18.40;99.90
61412;DHT22;47278;49.732;7.690;2023-07-22T07:50:38;18.60;99.90
61412;DHT22;47278;49.732;7.690;2023-07-22T07:53:04;18.80;99.90
61412;DHT22;47278;49.732;7.690;2023-07-22T07:55:29;18.90;99.90
61412;DHT22;47278;49.732;7.690;2023-07-22T07:57:55;19.00;99.90
61412;DHT22;47278;49.732;7.690;2023-07-22T08:00:20;19.10;99.90
61412;DHT22;47278;49.732;7.690;2023-07-22T08:02:46;19.30;99.90
61412;DHT22;47278;49.732;7.690;2023-07-22T08:05:12;19.50;99.90
61412;DHT22;47278;49.732;7.690;2023-07-22T08:07:38;19.40;99.90
61412;DHT22;47278;49.732;7.690;2023-07-22T08:10:04;19.50;99.90
61412;DHT22;47278;49.732;7.690;2023-07-22T08:12:30;19.60;99.90
61412;DHT22;47278;49.732;7.690;2023-07-22T08:14:55;19.90;99.90
61412;DHT22;47278;49.732;7.690;2023-07-22T08:17:21;20.00;99.90
61412;DHT22;47278;49.732;7.690;2023-07-22T08:19:47;20.00;99.90
61412;DHT22;47278;49.732;7.690;2023-07-22T08:22:12;20.20;99.90
61412;DHT22;47278;49.732;7.690;2023-07-22T08:24:38;20.20;99.90
61412;DHT22;47278;49.732;7.690;2023-07-22T08:27:04;20.40;99.90
61412;DHT22;47278;49.732;7.690;2023-07-22T08:29:29;20.70;99.90
61412;DHT22;47278;49.732;7.690;2023-07-22T08:31:55;19.00;99.90
61412;DHT22;47278;49.732;7.690;2023-07-22T08:34:20;20.90;99.90
61412;DHT22;47278;49.732;7.690;2023-07-22T08:36:46;21.00;99.90
61412;DHT22;47278;49.732;7.690;2023-07-22T08:39:11;20.90;99.90
61412;DHT22;47278;49.732;7.690;2023-07-22T08:41:37;21.20;99.90
61412;DHT22;47278;49.732;7.690;2023-07-22T08:44:04;21.20;99.90
61412;DHT22;47278;49.732;7.690;2023-07-22T08:46:29;21.40;99.90
61412;DHT22;47278;49.732;7.690;2023-07-22T08:48:59;21.60;99.90
61412;DHT22;47278;49.732;7.690;2023-07-22T08:51:24;21.70;99.90
61412;DHT22;47278;49.732;7.690;2023-07-22T08:53:53;21.80;99.90
61412;DHT22;47278;49.732;7.690;2023-07-22T08:56:24;22.30;99.90
61412;DHT22;47278;49.732;7.690;2023-07-22T08:58:53;22.20;99.90
61412;DHT22;47278;49.732;7.690;2023-07-22T09:01:19;22.40;99.90
61412;DHT22;47278;49.732;7.690;2023-07-22T09:03:45;22.10;99.90
61412;DHT22;47278;49.732;7.690;2023-07-22T09:06:12;22.10;99.90
61412;DHT22;47278;49.732;7.690;2023-07-22T09:08:38;21.90;99.90
61412;DHT22;47278;49.732;7.690;2023-07-22T09:11:04;21.80;99.90
61412;DHT22;47278;49.732;7.690;2023-07-22T09:13:29;21.90;99.90
61412;DHT22;47278;49.732;7.690;2023-07-22T09:15:59;21.70;99.90
61412;DHT22;47278;49.732;7.690;2023-07-22T09:18:25;21.80;99.90
61412;DHT22;47278;49.732;7.690;2023-07-22T09:20:51;21.60;99.90
61412;DHT22;47278;49.732;7.690;2023-07-22T09:23:17;22.10;99.90
61412;DHT22;47278;49.732;7.690;2023-07-22T09:25:42;22.00;99.90
61412;DHT22;47278;49.732;7.690;2023-07-22T09:28:08;21.60;99.90
61412;DHT22;47278;49.732;7.690;2023-07-22T09:30:38;21.60;99.90
61412;DHT22;47278;49.732;7.690;2023-07-22T09:33:05;21.50;99.90
61412;DHT22;47278;49.732;7.690;2023-07-22T09:35:31;21.30;99.90
61412;DHT22;47278;49.732;7.690;2023-07-22T09:38:07;21.20;99.90
61412;DHT22;47278;49.732;7.690;2023-07-22T09:40:33;21.10;99.90
61412;DHT22;47278;49.732;7.690;2023-07-22T09:43:00;21.00;99.90
61412;DHT22;47278;49.732;7.690;2023-07-22T09:45:31;21.10;99.90
61412;DHT22;47278;49.732;7.690;2023-07-22T09:47:57;21.10;99.90
61412;DHT22;47278;49.732;7.690;2023-07-22T09:50:24;21.10;99.90
61412;DHT22;47278;49.732;7.690;2023-07-22T09:55:16;21.50;99.90
61412;DHT22;47278;49.732;7.690;2023-07-22T09:57:44;22.10;99.90
61412;DHT22;47278;49.732;7.690;2023-07-22T10:00:13;22.70;99.90
61412;DHT22;47278;49.732;7.690;2023-07-22T10:02:45;23.00;99.90
61412;DHT22;47278;49.732;7.690;2023-07-22T10:05:15;23.30;99.90
61412;DHT22;47278;49.732;7.690;2023-07-22T10:07:45;23.90;99.90
61412;DHT22;47278;49.732;7.690;2023-07-22T10:10:11;23.50;99.90
61412;DHT22;47278;49.732;7.690;2023-07-22T10:12:41;23.50;99.90
61412;DHT22;47278;49.732;7.690;2023-07-22T10:15:07;23.80;99.90
61412;DHT22;47278;49.732;7.690;2023-07-22T10:17:33;23.70;99.90
61412;DHT22;47278;49.732;7.690;2023-07-22T10:19:59;23.80;99.90
61412;DHT22;47278;49.732;7.690;2023-07-22T10:22:25;23.50;99.90
61412;DHT22;47278;49.732;7.690;2023-07-22T10:24:51;23.90;99.90
61412;DHT22;47278;49.732;7.690;2023-07-22T10:27:17;24.00;99.90
61412;DHT22;47278;49.732;7.690;2023-07-22T10:29:43;24.50;99.90
61412;DHT22;47278;49.732;7.690;2023-07-22T10:32:12;24.70;99.90
61412;DHT22;47278;49.732;7.690;2023-07-22T10:34:38;24.10;99.90
61412;DHT22;47278;49.732;7.690;2023-07-22T10:37:04;23.70;99.90
61412;DHT22;47278;49.732;7.690;2023-07-22T10:39:30;23.50;99.90
61412;DHT22;47278;49.732;7.690;2023-07-22T10:42:17;23.40;99.90
61412;DHT22;47278;49.732;7.690;2023-07-22T10:44:43;23.40;99.90
61412;DHT22;47278;49.732;7.690;2023-07-22T10:47:09;24.10;99.90
61412;DHT22;47278;49.732;7.690;2023-07-22T10:49:45;24.80;99.90
61412;DHT22;47278;49.732;7.690;2023-07-22T10:52:11;24.70;99.90
61412;DHT22;47278;49.732;7.690;2023-07-22T10:54:38;25.10;99.90
61412;DHT22;47278;49.732;7.690;2023-07-22T10:57:22;25.00;99.90
61412;DHT22;47278;49.732;7.690;2023-07-22T10:59:51;24.50;99.90
61412;DHT22;47278;49.732;7.690;2023-07-22T11:02:27;24.40;99.90
61412;DHT22;47278;49.732;7.690;2023-07-22T11:04:56;24.30;99.90
61412;DHT22;47278;49.732;7.690;2023-07-22T11:07:34;24.30;99.90
61412;DHT22;47278;49.732;7.690;2023-07-22T11:10:11;24.40;99.90
61412;DHT22;47278;49.732;7.690;2023-07-22T11:12:38;24.10;99.90
61412;DHT22;47278;49.732;7.690;2023-07-22T11:15:03;24.40;99.90
61412;DHT22;47278;49.732;7.690;2023-07-22T11:17:31;24.40;99.90
61412;DHT22;47278;49.732;7.690;2023-07-22T11:19:57;24.90;99.40
61412;DHT22;47278;49.732;7.690;2023-07-22T11:22:23;24.90;99.20
61412;DHT22;47278;49.732;7.690;2023-07-22T11:24:48;25.20;99.00
61412;DHT22;47278;49.732;7.690;2023-07-22T11:27:14;25.10;98.50
61412;DHT22;47278;49.732;7.690;2023-07-22T11:29:40;25.00;98.60
61412;DHT22;47278;49.732;7.690;2023-07-22T11:32:06;24.50;98.90
61412;DHT22;47278;49.732;7.690;2023-07-22T11:34:33;24.20;98.60
61412;DHT22;47278;49.732;7.690;2023-07-22T11:36:58;24.30;97.90
61412;DHT22;47278;49.732;7.690;2023-07-22T11:39:25;24.30;97.20
61412;DHT22;47278;49.732;7.690;2023-07-22T11:41:51;24.60;96.40
61412;DHT22;47278;49.732;7.690;2023-07-22T11:44:17;24.70;96.90
61412;DHT22;47278;49.732;7.690;2023-07-22T11:46:59;24.60;95.50
61412;DHT22;47278;49.732;7.690;2023-07-22T11:52:03;25.50;95.80
61412;DHT22;47278;49.732;7.690;2023-07-22T11:54:30;25.10;94.90
61412;DHT22;47278;49.732;7.690;2023-07-22T11:56:56;24.70;95.90
61412;DHT22;47278;49.732;7.690;2023-07-22T11:59:37;24.80;96.00
61412;DHT22;47278;49.732;7.690;2023-07-22T12:02:03;26.20;97.30
61412;DHT22;47278;49.732;7.690;2023-07-22T12:04:32;24.90;97.30
61412;DHT22;47278;49.732;7.690;2023-07-22T12:06:59;25.80;97.70
61412;DHT22;47278;49.732;7.690;2023-07-22T12:09:25;24.50;98.10
61412;DHT22;47278;49.732;7.690;2023-07-22T12:11:57;24.50;98.30
61412;DHT22;47278;49.732;7.690;2023-07-22T12:14:23;24.50;98.40
61412;DHT22;47278;49.732;7.690;2023-07-22T12:16:52;24.50;98.10
61412;DHT22;47278;49.732;7.690;2023-07-22T12:19:18;24.30;98.50
61412;DHT22;47278;49.732;7.690;2023-07-22T12:21:43;24.60;97.50
61412;DHT22;47278;49.732;7.690;2023-07-22T12:24:13;24.90;97.20
61412;DHT22;47278;49.732;7.690;2023-07-22T12:26:38;24.50;97.40
61412;DHT22;47278;49.732;7.690;2023-07-22T12:29:04;24.30;98.60
61412;DHT22;47278;49.732;7.690;2023-07-22T12:31:29;25.00;97.60
61412;DHT22;47278;49.732;7.690;2023-07-22T12:33:55;25.10;97.60
61412;DHT22;47278;49.732;7.690;2023-07-22T12:36:21;24.60;98.00
61412;DHT22;47278;49.732;7.690;2023-07-22T12:38:46;25.30;98.10
61412;DHT22;47278;49.732;7.690;2023-07-22T12:41:12;25.10;97.20
61412;DHT22;47278;49.732;7.690;2023-07-22T12:43:37;25.00;97.20
61412;DHT22;47278;49.732;7.690;2023-07-22T12:46:03;24.30;97.40
61412;DHT22;47278;49.732;7.690;2023-07-22T12:48:28;24.00;97.20
61412;DHT22;47278;49.732;7.690;2023-07-22T12:50:54;24.20;97.50
61412;DHT22;47278;49.732;7.690;2023-07-22T12:53:20;24.50;97.60
61412;DHT22;47278;49.732;7.690;2023-07-22T12:55:45;24.40;97.20
61412;DHT22;47278;49.732;7.690;2023-07-22T12:58:11;24.20;97.50
61412;DHT22;47278;49.732;7.690;2023-07-22T13:00:36;24.70;97.90
61412;DHT22;47278;49.732;7.690;2023-07-22T13:03:02;24.50;97.00
61412;DHT22;47278;49.732;7.690;2023-07-22T13:05:27;24.50;97.10
61412;DHT22;47278;49.732;7.690;2023-07-22T13:07:53;24.70;96.30
61412;DHT22;47278;49.732;7.690;2023-07-22T13:10:19;24.70;95.40
61412;DHT22;47278;49.732;7.690;2023-07-22T13:12:45;24.70;95.30
61412;DHT22;47278;49.732;7.690;2023-07-22T13:15:11;25.10;94.90
61412;DHT22;47278;49.732;7.690;2023-07-22T13:17:37;24.90;95.40
61412;DHT22;47278;49.732;7.690;2023-07-22T13:20:04;25.70;94.20
61412;DHT22;47278;49.732;7.690;2023-07-22T13:22:34;26.10;94.00
61412;DHT22;47278;49.732;7.690;2023-07-22T13:25:00;25.50;93.70
61412;DHT22;47278;49.732;7.690;2023-07-22T13:27:25;25.30;93.80
61412;DHT22;47278;49.732;7.690;2023-07-22T13:29:51;25.30;94.10
61412;DHT22;47278;49.732;7.690;2023-07-22T13:32:17;25.40;94.00
61412;DHT22;47278;49.732;7.690;2023-07-22T13:34:42;25.30;93.60
61412;DHT22;47278;49.732;7.690;2023-07-22T13:37:08;24.90;94.10
61412;DHT22;47278;49.732;7.690;2023-07-22T13:39:33;24.70;94.30
61412;DHT22;47278;49.732;7.690;2023-07-22T13:41:59;24.50;94.60
61412;DHT22;47278;49.732;7.690;2023-07-22T13:44:24;24.90;94.40
61412;DHT22;47278;49.732;7.690;2023-07-22T13:46:50;25.10;94.20
61412;DHT22;47278;49.732;7.690;2023-07-22T13:49:15;24.90;93.90
61412;DHT22;47278;49.732;7.690;2023-07-22T13:51:41;24.90;94.50
61412;DHT22;47278;49.732;7.690;2023-07-22T13:54:07;26.10;94.80
61412;DHT22;47278;49.732;7.690;2023-07-22T13:56:32;25.80;93.70
61412;DHT22;47278;49.732;7.690;2023-07-22T13:58:58;24.20;93.20
61412;DHT22;47278;49.732;7.690;2023-07-22T14:01:26;25.70;93.70
61412;DHT22;47278;49.732;7.690;2023-07-22T14:03:51;26.20;92.80
61412;DHT22;47278;49.732;7.690;2023-07-22T14:06:17;26.00;93.50
61412;DHT22;47278;49.732;7.690;2023-07-22T14:08:42;26.30;93.00
61412;DHT22;47278;49.732;7.690;2023-07-22T14:11:08;26.90;93.40
61412;DHT22;47278;49.732;7.690;2023-07-22T14:13:34;26.80;92.60
61412;DHT22;47278;49.732;7.690;2023-07-22T14:15:59;26.50;91.80
61412;DHT22;47278;49.732;7.690;2023-07-22T14:18:25;26.40;93.00
61412;DHT22;47278;49.732;7.690;2023-07-22T14:20:50;26.80;93.00
61412;DHT22;47278;49.732;7.690;2023-07-22T14:23:16;26.00;92.90
61412;DHT22;47278;49.732;7.690;2023-07-22T14:25:41;26.80;93.90
61412;DHT22;47278;49.732;7.690;2023-07-22T14:28:07;27.20;93.10
61412;DHT22;47278;49.732;7.690;2023-07-22T14:30:32;26.00;92.70
61412;DHT22;47278;49.732;7.690;2023-07-22T14:32:58;26.70;92.20
61412;DHT22;47278;49.732;7.690;2023-07-22T14:35:24;26.80;92.80
61412;DHT22;47278;49.732;7.690;2023-07-22T14:37:49;27.40;92.30
61412;DHT22;47278;49.732;7.690;2023-07-22T14:40:15;26.30;92.20
61412;DHT22;47278;49.732;7.690;2023-07-22T14:42:40;25.80;92.60
61412;DHT22;47278;49.732;7.690;2023-07-22T14:45:06;28.00;93.20
61412;DHT22;47278;49.732;7.690;2023-07-22T14:47:32;26.00;92.10
61412;DHT22;47278;49.732;7.690;2023-07-22T14:49:57;25.90;92.70
61412;DHT22;47278;49.732;7.690;2023-07-22T14:52:23;26.30;92.50
61412;DHT22;47278;49.732;7.690;2023-07-22T14:54:49;26.70;92.20
61412;DHT22;47278;49.732;7.690;2023-07-22T14:57:16;26.10;91.80
61412;DHT22;47278;49.732;7.690;2023-07-22T14:59:41;26.10;93.10
61412;DHT22;47278;49.732;7.690;2023-07-22T15:02:07;26.50;92.30
61412;DHT22;47278;49.732;7.690;2023-07-22T15:04:33;26.40;92.70
61412;DHT22;47278;49.732;7.690;2023-07-22T15:06:58;26.10;92.30
61412;DHT22;47278;49.732;7.690;2023-07-22T15:09:24;26.00;91.90
61412;DHT22;47278;49.732;7.690;2023-07-22T15:11:49;25.70;91.70
61412;DHT22;47278;49.732;7.690;2023-07-22T15:14:15;26.40;92.20
61412;DHT22;47278;49.732;7.690;2023-07-22T15:16:40;26.80;91.60
61412;DHT22;47278;49.732;7.690;2023-07-22T15:19:06;27.00;92.50
61412;DHT22;47278;49.732;7.690;2023-07-22T15:21:32;26.80;91.80
61412;DHT22;47278;49.732;7.690;2023-07-22T15:23:58;26.70;91.40
61412;DHT22;47278;49.732;7.690;2023-07-22T15:26:23;29.70;92.40
61412;DHT22;47278;49.732;7.690;2023-07-22T15:28:49;28.00;90.00